Apple Grove, North Carolina
Current Conditions -  °F | °C
As of 6:15 AM on Tuesday 21 Oct 2014 (Local Time) from KGEV Reporting Station
Scattered Clouds Scattered Clouds  
Wind Chill: 50°   Ceiling: Unl
Heat Index: 50°   Visibility: 10mi
Dew Point: 42°   Wind: 9mph
Humidity: 74%   Direction: 260°W
Pressure: 29.96"   Gusts: NA
Location:  36.524°N, 81.538°W
Report Text: KGEV 211015Z AUTO 26008KT 10SM SCT016 SCT070 10/06 A2996 RMK AO2 T01000055
Loading
Personal Weather Stations






























Interactive Weather Map
Tropical Storm Tracking
New forecast layout! Learn more

10-Day Weather Forecast

Advertisements
Track Severe Weather on mobile